createdAt,value
2024-03-02T00:00:12.645Z,87344.00
2024-03-02T00:01:12.764Z,87348.00
2024-03-02T00:02:12.690Z,87344.00
2024-03-02T00:03:12.755Z,87340.00
2024-03-02T00:04:12.795Z,87342.00
2024-03-02T00:05:12.843Z,87342.00
2024-03-02T00:06:12.917Z,87335.00
2024-03-02T00:07:12.938Z,87336.00
2024-03-02T00:08:12.990Z,87335.00
2024-03-02T00:09:13.028Z,87337.00
2024-03-02T00:10:13.004Z,87338.00
2024-03-02T00:11:13.013Z,87339.00
2024-03-02T00:12:13.116Z,87336.00
2024-03-02T00:13:13.017Z,87336.00
2024-03-02T00:14:13.019Z,87339.00
2024-03-02T00:15:13.125Z,87341.00
2024-03-02T00:16:13.032Z,87340.00
2024-03-02T00:17:13.033Z,87342.00
2024-03-02T00:18:13.118Z,87344.00
2024-03-02T00:19:13.013Z,87342.00
2024-03-02T00:20:13.027Z,87339.00
2024-03-02T00:21:13.055Z,87344.00
2024-03-02T00:22:13.024Z,87349.00
2024-03-02T00:23:13.040Z,87348.00
2024-03-02T00:24:13.140Z,87351.00
2024-03-02T00:25:13.241Z,87350.00
2024-03-02T00:26:13.092Z,87352.00
2024-03-02T00:27:13.159Z,87349.00
2024-03-02T00:28:13.079Z,87351.00
2024-03-02T00:29:13.079Z,87350.00
2024-03-02T00:30:13.144Z,87348.00
2024-03-02T00:31:13.102Z,87351.00
2024-03-02T00:32:13.101Z,87348.00
2024-03-02T00:33:13.204Z,87350.00
2024-03-02T00:34:13.155Z,87350.00
2024-03-02T00:35:13.114Z,87350.00
2024-03-02T00:36:13.133Z,87350.00
2024-03-02T00:37:13.144Z,87347.00
2024-03-02T00:38:13.142Z,87356.00
2024-03-02T00:39:13.372Z,87354.00
2024-03-02T00:40:13.249Z,87358.00
2024-03-02T00:41:13.282Z,87352.00
2024-03-02T00:42:13.398Z,87350.00
2024-03-02T00:43:13.379Z,87350.00
2024-03-02T00:44:13.460Z,87350.00
2024-03-02T00:45:13.502Z,87352.00
2024-03-02T00:46:13.540Z,87351.00
2024-03-02T00:47:13.593Z,87347.00
2024-03-02T00:48:13.678Z,87350.00
2024-03-02T00:49:13.720Z,87355.00
2024-03-02T00:50:20.630Z,87351.00
2024-03-02T00:51:14.790Z,87352.00
2024-03-02T00:52:13.737Z,87351.00
2024-03-02T00:53:13.751Z,87349.00
2024-03-02T00:54:13.766Z,87356.00
2024-03-02T00:55:13.758Z,87352.00
2024-03-02T00:56:13.759Z,87358.00
2024-03-02T00:57:13.885Z,87352.00
2024-03-02T00:58:13.777Z,87355.00
2024-03-02T00:59:13.770Z,87357.00
2024-03-02T01:00:13.795Z,87356.00
2024-03-02T01:01:13.813Z,87355.00
2024-03-02T01:02:13.760Z,87353.00
2024-03-02T01:03:13.826Z,87355.00
2024-03-02T01:04:13.821Z,87361.00
2024-03-02T01:05:13.874Z,87357.00
2024-03-02T01:06:13.955Z,87354.00
2024-03-02T01:07:13.960Z,87356.00
2024-03-02T01:08:14.009Z,87359.00
2024-03-02T01:09:14.159Z,87355.00
2024-03-02T01:10:14.127Z,87354.00
2024-03-02T01:11:14.204Z,87356.00
2024-03-02T01:12:14.237Z,87355.00
2024-03-02T01:13:14.279Z,87360.00
2024-03-02T01:14:14.313Z,87356.00
2024-03-02T01:15:14.426Z,87355.00
2024-03-02T01:16:14.435Z,87357.00
2024-03-02T01:17:14.488Z,87355.00
2024-03-02T01:18:14.558Z,87357.00
2024-03-02T01:19:14.624Z,87355.00
2024-03-02T01:20:14.654Z,87355.00
2024-03-02T01:21:14.686Z,87351.00
2024-03-02T01:22:14.704Z,87354.00
2024-03-02T01:23:14.766Z,87354.00
2024-03-02T01:24:14.836Z,87353.00
2024-03-02T01:25:14.870Z,87351.00
2024-03-02T01:26:14.917Z,87356.00
2024-03-02T01:27:15.046Z,87355.00
2024-03-02T01:28:15.066Z,87354.00
2024-03-02T01:29:15.087Z,87356.00
2024-03-02T01:30:15.172Z,87356.00
2024-03-02T01:31:15.186Z,87358.00
2024-03-02T01:32:15.236Z,87355.00
2024-03-02T01:33:15.319Z,87358.00
2024-03-02T01:34:15.344Z,87358.00
2024-03-02T01:35:15.379Z,87357.00
2024-03-02T01:36:15.482Z,87356.00
2024-03-02T01:37:15.503Z,87358.00
2024-03-02T01:38:15.530Z,87357.00
2024-03-02T01:39:15.596Z,87358.00
2024-03-02T01:40:15.644Z,87359.00
2024-03-02T01:41:15.680Z,87361.00
2024-03-02T01:42:15.746Z,87359.00
2024-03-02T01:43:15.770Z,87361.00
2024-03-02T01:44:15.827Z,87360.00
2024-03-02T01:45:15.926Z,87358.00
2024-03-02T01:46:15.960Z,87361.00
2024-03-02T01:47:15.937Z,87360.00
2024-03-02T01:48:16.022Z,87361.00
2024-03-02T01:49:15.959Z,87364.00
2024-03-02T01:50:15.936Z,87364.00
2024-03-02T01:51:15.967Z,87362.00
2024-03-02T01:52:15.932Z,87362.00
2024-03-02T01:53:15.934Z,87361.00
2024-03-02T01:54:15.962Z,87360.00
2024-03-02T01:55:15.944Z,87361.00
2024-03-02T01:56:15.939Z,87359.00
2024-03-02T01:57:15.990Z,87362.00
2024-03-02T01:58:15.955Z,87363.00
2024-03-02T01:59:15.966Z,87362.00
2024-03-02T02:00:16.091Z,87365.00
2024-03-02T02:01:16.150Z,87362.00
2024-03-02T02:02:16.139Z,87361.00
2024-03-02T02:03:16.223Z,87362.00
2024-03-02T02:04:16.230Z,87362.00
2024-03-02T02:05:16.301Z,87363.00
2024-03-02T02:06:16.413Z,87362.00
2024-03-02T02:07:16.400Z,87362.00
2024-03-02T02:08:16.452Z,87360.00
2024-03-02T02:09:16.553Z,87357.00
2024-03-02T02:10:16.577Z,87354.00
2024-03-02T02:11:16.641Z,87355.00
2024-03-02T02:12:16.730Z,87354.00
2024-03-02T02:13:16.717Z,87352.00
2024-03-02T02:14:16.788Z,87353.00
2024-03-02T02:15:16.848Z,87352.00
2024-03-02T02:16:16.891Z,87351.00
2024-03-02T02:17:16.940Z,87349.00
2024-03-02T02:18:17.099Z,87346.00
2024-03-02T02:19:17.073Z,87346.00
2024-03-02T02:20:17.118Z,87345.00
2024-03-02T02:21:17.267Z,87344.00
2024-03-02T02:22:17.254Z,87344.00
2024-03-02T02:23:17.312Z,87340.00
2024-03-02T02:24:17.367Z,87340.00
2024-03-02T02:25:17.304Z,87340.00
2024-03-02T02:26:17.274Z,87340.00
2024-03-02T02:27:17.307Z,87339.00
2024-03-02T02:28:17.252Z,87339.00
2024-03-02T02:29:17.263Z,87339.00
2024-03-02T02:30:17.269Z,87343.00
2024-03-02T02:31:17.256Z,87343.00
2024-03-02T02:32:17.238Z,87343.00
2024-03-02T02:33:17.354Z,87341.00
2024-03-02T02:34:17.239Z,87342.00
2024-03-02T02:35:17.241Z,87340.00
2024-03-02T02:36:17.278Z,87342.00
2024-03-02T02:37:17.254Z,87341.00
2024-03-02T02:38:17.232Z,87342.00
2024-03-02T02:39:17.303Z,87344.00
2024-03-02T02:40:17.238Z,87347.00
2024-03-02T02:41:17.232Z,87345.00
2024-03-02T02:42:17.302Z,87342.00
2024-03-02T02:43:17.227Z,87342.00
2024-03-02T02:44:17.224Z,87343.00
2024-03-02T02:45:17.284Z,87342.00
2024-03-02T02:46:17.237Z,87341.00
2024-03-02T02:47:17.229Z,87341.00
2024-03-02T02:48:17.280Z,87339.00
2024-03-02T02:49:17.247Z,87339.00
2024-03-02T02:50:17.250Z,87337.00
2024-03-02T02:51:17.320Z,87338.00
2024-03-02T02:52:17.367Z,87334.00
2024-03-02T02:53:17.417Z,87339.00
2024-03-02T02:54:17.481Z,87343.00
2024-03-02T02:55:17.522Z,87344.00
2024-03-02T02:56:17.517Z,87341.00
2024-03-02T02:57:17.535Z,87337.00
2024-03-02T02:58:17.508Z,87340.00
2024-03-02T02:59:17.526Z,87339.00
2024-03-02T03:00:18.583Z,87337.00
2024-03-02T03:01:17.573Z,87339.00
2024-03-02T03:02:17.506Z,87335.00
2024-03-02T03:03:17.548Z,87337.00
2024-03-02T03:04:17.512Z,87339.00
2024-03-02T03:05:17.589Z,87334.00
2024-03-02T03:06:17.576Z,87334.00
2024-03-02T03:07:17.513Z,87332.00
2024-03-02T03:08:17.516Z,87332.00
2024-03-02T03:09:17.530Z,87335.00
2024-03-02T03:10:17.521Z,87331.00
2024-03-02T03:11:17.546Z,87332.00
2024-03-02T03:12:17.559Z,87334.00
2024-03-02T03:13:17.540Z,87338.00
2024-03-02T03:14:17.556Z,87336.00
2024-03-02T03:15:17.852Z,87334.00
2024-03-02T03:16:17.552Z,87334.00
2024-03-02T03:17:17.548Z,87335.00
2024-03-02T03:18:17.653Z,87336.00
2024-03-02T03:19:17.559Z,87337.00
2024-03-02T03:20:17.546Z,87335.00
2024-03-02T03:21:17.583Z,87335.00
2024-03-02T03:22:17.557Z,87333.00
2024-03-02T03:23:17.560Z,87334.00
2024-03-02T03:24:17.583Z,87330.00
2024-03-02T03:25:17.561Z,87335.00
2024-03-02T03:26:17.558Z,87332.00
2024-03-02T03:27:17.590Z,87337.00
2024-03-02T03:28:17.577Z,87334.00
2024-03-02T03:29:17.563Z,87333.00
2024-03-02T03:30:17.631Z,87334.00
2024-03-02T03:31:17.589Z,87332.00
2024-03-02T03:32:17.628Z,87331.00
2024-03-02T03:33:17.734Z,87332.00
2024-03-02T03:34:17.759Z,87332.00
2024-03-02T03:35:17.870Z,87328.00
2024-03-02T03:36:17.894Z,87333.00
2024-03-02T03:37:17.982Z,87331.00
2024-03-02T03:38:18.008Z,87330.00
2024-03-02T03:39:18.112Z,87329.00
2024-03-02T03:40:18.147Z,87333.00
2024-03-02T03:41:18.207Z,87328.00
2024-03-02T03:42:18.307Z,87327.00
2024-03-02T03:43:18.350Z,87330.00
2024-03-02T03:44:18.423Z,87328.00
2024-03-02T03:45:18.531Z,87330.00
2024-03-02T03:46:18.437Z,87328.00
2024-03-02T03:47:18.473Z,87328.00
2024-03-02T03:48:18.509Z,87329.00
2024-03-02T03:49:18.511Z,87328.00
2024-03-02T03:50:18.522Z,87329.00
2024-03-02T03:51:18.559Z,87328.00
2024-03-02T03:52:18.560Z,87328.00
2024-03-02T03:53:18.565Z,87330.00
2024-03-02T03:54:18.690Z,87328.00
2024-03-02T03:55:18.611Z,87331.00
2024-03-02T03:56:18.615Z,87331.00
2024-03-02T03:57:18.706Z,87331.00
2024-03-02T03:58:20.052Z,87332.00
2024-03-02T03:59:18.635Z,87330.00
2024-03-02T04:00:18.689Z,87331.00
2024-03-02T04:01:18.719Z,87333.00
2024-03-02T04:02:18.667Z,87335.00
2024-03-02T04:03:18.715Z,87330.00
2024-03-02T04:04:18.670Z,87332.00
2024-03-02T04:05:18.714Z,87331.00
2024-03-02T04:06:18.755Z,87332.00
2024-03-02T04:07:18.748Z,87332.00
2024-03-02T04:08:18.725Z,87333.00
2024-03-02T04:09:18.780Z,87336.00
2024-03-02T04:10:18.761Z,87335.00
2024-03-02T04:11:18.802Z,87336.00
2024-03-02T04:12:18.820Z,87335.00
2024-03-02T04:13:18.785Z,87335.00
2024-03-02T04:14:18.794Z,87336.00
2024-03-02T04:15:18.884Z,87340.00
2024-03-02T04:16:18.824Z,87338.00
2024-03-02T04:17:18.829Z,87340.00
2024-03-02T04:18:18.871Z,87342.00
2024-03-02T04:19:18.869Z,87350.00
2024-03-02T04:20:18.892Z,87347.00
2024-03-02T04:21:18.965Z,87345.00
2024-03-02T04:22:24.991Z,87351.00
2024-03-02T04:23:19.941Z,87344.00
2024-03-02T04:24:18.942Z,87344.00
2024-03-02T04:25:18.951Z,87347.00
2024-03-02T04:26:18.965Z,87351.00
2024-03-02T04:27:19.017Z,87345.00
2024-03-02T04:28:18.973Z,87350.00
2024-03-02T04:29:18.988Z,87357.00
2024-03-02T04:30:19.043Z,87357.00
2024-03-02T04:31:19.008Z,87353.00
2024-03-02T04:32:19.025Z,87354.00
2024-03-02T04:33:19.179Z,87356.00
2024-03-02T04:34:19.040Z,87363.00
2024-03-02T04:35:31.197Z,87354.00
2024-03-02T04:36:31.266Z,87358.00
2024-03-02T04:37:31.190Z,87357.00
2024-03-02T04:38:31.173Z,87354.00
2024-03-02T04:39:31.169Z,87356.00
2024-03-02T04:40:31.162Z,87356.00
2024-03-02T04:41:31.157Z,87355.00
2024-03-02T04:42:31.193Z,87358.00
2024-03-02T04:43:31.153Z,87362.00
2024-03-02T04:44:31.128Z,87364.00
2024-03-02T04:45:31.149Z,87367.00
2024-03-02T04:46:31.110Z,87367.00
2024-03-02T04:47:31.122Z,87364.00
2024-03-02T04:48:31.315Z,87366.00
2024-03-02T04:49:31.320Z,87366.00
2024-03-02T04:50:31.272Z,87368.00
2024-03-02T04:51:31.317Z,87369.00
2024-03-02T04:52:31.360Z,87369.00
2024-03-02T04:53:31.406Z,87373.00
2024-03-02T04:54:31.448Z,87369.00
2024-03-02T04:55:31.473Z,87369.00
2024-03-02T04:56:31.499Z,87366.00
2024-03-02T04:57:31.585Z,87370.00
2024-03-02T04:58:31.572Z,87371.00
2024-03-02T04:59:31.617Z,87369.00
2024-03-02T05:00:31.673Z,87370.00
2024-03-02T05:01:31.719Z,87374.00
2024-03-02T05:02:31.724Z,87371.00
2024-03-02T05:03:31.828Z,87372.00
2024-03-02T05:04:31.788Z,87374.00
2024-03-02T05:05:31.849Z,87378.00
2024-03-02T05:06:31.891Z,87376.00
2024-03-02T05:07:31.876Z,87376.00
2024-03-02T05:08:31.939Z,87374.00
2024-03-02T05:09:31.975Z,87375.00
2024-03-02T05:10:31.955Z,87374.00
2024-03-02T05:11:32.078Z,87376.00
2024-03-02T05:12:32.050Z,87370.00
2024-03-02T05:13:32.000Z,87378.00
2024-03-02T05:14:32.045Z,87380.00
2024-03-02T05:15:32.104Z,87379.00
2024-03-02T05:16:32.060Z,87378.00
2024-03-02T05:17:32.150Z,87381.00
2024-03-02T05:18:32.139Z,87375.00
2024-03-02T05:19:32.095Z,87383.00
2024-03-02T05:20:32.087Z,87382.00
2024-03-02T05:21:32.143Z,87386.00
2024-03-02T05:22:32.123Z,87392.00
2024-03-02T05:23:32.121Z,87386.00
2024-03-02T05:24:32.210Z,87387.00
2024-03-02T05:25:32.204Z,87384.00
2024-03-02T05:26:32.228Z,87387.00
2024-03-02T05:27:32.292Z,87390.00
2024-03-02T05:28:32.237Z,87383.00
2024-03-02T05:29:32.236Z,87388.00
2024-03-02T05:30:32.300Z,87387.00
2024-03-02T05:31:32.255Z,87388.00
2024-03-02T05:32:32.239Z,87388.00
2024-03-02T05:33:32.326Z,87391.00
2024-03-02T05:34:32.251Z,87390.00
2024-03-02T05:35:32.212Z,87395.00
2024-03-02T05:36:32.239Z,87392.00
2024-03-02T05:37:32.224Z,87395.00
2024-03-02T05:38:32.211Z,87392.00
2024-03-02T05:39:32.237Z,87391.00
2024-03-02T05:40:32.194Z,87393.00
2024-03-02T05:41:32.182Z,87394.00
2024-03-02T05:42:32.238Z,87393.00
2024-03-02T05:43:32.176Z,87396.00
2024-03-02T05:44:32.178Z,87392.00
2024-03-02T05:45:32.176Z,87393.00
2024-03-02T05:46:32.173Z,87400.00
2024-03-02T05:47:32.176Z,87399.00
2024-03-02T05:48:32.196Z,87399.00
2024-03-02T05:49:32.168Z,87400.00
2024-03-02T05:50:32.180Z,87402.00
2024-03-02T05:51:32.232Z,87401.00
2024-03-02T05:52:32.179Z,87403.00
2024-03-02T05:53:32.168Z,87404.00
2024-03-02T05:54:32.207Z,87403.00
2024-03-02T05:55:32.169Z,87402.00
2024-03-02T05:56:32.172Z,87406.00
2024-03-02T05:57:32.172Z,87404.00
2024-03-02T05:58:32.150Z,87408.00
2024-03-02T05:59:32.150Z,87403.00
2024-03-02T06:00:32.245Z,87409.00
2024-03-02T06:01:32.224Z,87406.00
2024-03-02T06:02:32.115Z,87408.00
2024-03-02T06:03:32.106Z,87409.00
2024-03-02T06:04:32.088Z,87411.00
2024-03-02T06:05:32.086Z,87413.00
2024-03-02T06:06:32.140Z,87411.00
2024-03-02T06:07:32.149Z,87414.00
2024-03-02T06:08:32.061Z,87414.00
2024-03-02T06:09:32.098Z,87414.00
2024-03-02T06:10:32.069Z,87415.00
2024-03-02T06:11:32.086Z,87417.00
2024-03-02T06:12:32.063Z,87417.00
2024-03-02T06:13:32.039Z,87417.00
2024-03-02T06:14:32.014Z,87419.00
2024-03-02T06:15:32.045Z,87417.00
2024-03-02T06:16:31.994Z,87419.00
2024-03-02T06:17:32.071Z,87420.00
2024-03-02T06:18:32.012Z,87423.00
2024-03-02T06:19:31.954Z,87419.00
2024-03-02T06:20:34.477Z,87423.00
2024-03-02T06:21:31.988Z,87417.00
2024-03-02T06:22:31.921Z,87417.00
2024-03-02T06:23:31.895Z,87419.00
2024-03-02T06:24:31.924Z,87419.00
2024-03-02T06:25:31.891Z,87416.00
2024-03-02T06:26:31.887Z,87417.00
2024-03-02T06:27:31.928Z,87417.00
2024-03-02T06:28:31.847Z,87422.00
2024-03-02T06:29:31.831Z,87421.00
2024-03-02T06:30:31.838Z,87422.00
2024-03-02T06:31:31.812Z,87424.00
2024-03-02T06:32:31.827Z,87422.00
2024-03-02T06:33:31.812Z,87420.00
2024-03-02T06:34:31.781Z,87423.00
2024-03-02T06:35:31.775Z,87422.00
2024-03-02T06:36:31.862Z,87425.00
2024-03-02T06:37:31.756Z,87425.00
2024-03-02T06:38:31.745Z,87427.00
2024-03-02T06:39:31.765Z,87427.00
2024-03-02T06:40:31.742Z,87424.00
2024-03-02T06:41:31.725Z,87425.00
2024-03-02T06:42:31.807Z,87426.00
2024-03-02T06:43:31.699Z,87428.00
2024-03-02T06:44:31.694Z,87427.00
2024-03-02T06:45:31.781Z,87429.00
2024-03-02T06:46:31.685Z,87428.00
2024-03-02T06:47:31.681Z,87430.00
2024-03-02T06:48:31.799Z,87428.00
2024-03-02T06:49:31.670Z,87431.00
2024-03-02T06:50:31.662Z,87431.00
2024-03-02T06:51:31.657Z,87431.00
2024-03-02T06:52:31.637Z,87432.00
2024-03-02T06:53:31.592Z,87432.00
2024-03-02T06:54:31.609Z,87431.00
2024-03-02T06:55:31.592Z,87431.00
2024-03-02T06:56:31.583Z,87430.00
2024-03-02T06:57:31.592Z,87426.00
2024-03-02T06:58:31.567Z,87428.00
2024-03-02T06:59:31.581Z,87430.00
2024-03-02T07:00:31.607Z,87431.00
2024-03-02T07:01:31.529Z,87427.00
2024-03-02T07:02:31.507Z,87432.00
2024-03-02T07:03:31.521Z,87429.00
2024-03-02T07:04:31.500Z,87429.00
2024-03-02T07:05:31.473Z,87429.00
2024-03-02T07:06:31.526Z,87431.00
2024-03-02T07:07:31.442Z,87431.00
2024-03-02T07:08:31.436Z,87429.00
2024-03-02T07:09:31.440Z,87425.00
2024-03-02T07:10:31.403Z,87428.00
2024-03-02T07:11:31.463Z,87427.00
2024-03-02T07:12:31.365Z,87426.00
2024-03-02T07:13:31.377Z,87432.00
2024-03-02T07:14:31.408Z,87431.00
2024-03-02T07:15:31.463Z,87428.00
2024-03-02T07:16:31.446Z,87424.00
2024-03-02T07:17:31.458Z,87430.00
2024-03-02T07:18:31.498Z,87430.00
2024-03-02T07:19:31.555Z,87429.00
2024-03-02T07:20:31.531Z,87426.00
2024-03-02T07:21:31.579Z,87432.00
2024-03-02T07:22:31.569Z,87431.00
2024-03-02T07:23:31.591Z,87437.00
2024-03-02T07:24:31.689Z,87431.00
2024-03-02T07:27:31.615Z,87434.00
2024-03-02T07:28:31.587Z,87433.00
2024-03-02T07:29:31.560Z,87437.00
2024-03-02T07:30:34.034Z,87437.00
2024-03-02T07:31:31.549Z,87440.00
2024-03-02T07:32:31.585Z,87438.00
2024-03-02T07:33:31.546Z,87441.00
2024-03-02T07:34:31.515Z,87436.00
2024-03-02T07:35:31.514Z,87442.00
2024-03-02T07:36:31.499Z,87446.00
2024-03-02T07:37:31.467Z,87442.00
2024-03-02T07:38:31.464Z,87441.00
2024-03-02T07:39:31.455Z,87443.00
2024-03-02T07:40:31.431Z,87444.00
2024-03-02T07:41:31.424Z,87446.00
2024-03-02T07:42:31.416Z,87457.00
2024-03-02T07:43:31.389Z,87448.00
2024-03-02T07:44:31.391Z,87448.00
2024-03-02T07:45:31.378Z,87446.00
2024-03-02T07:46:31.346Z,87450.00
2024-03-02T07:47:31.357Z,87454.00
2024-03-02T07:48:31.320Z,87449.00
2024-03-02T07:49:31.309Z,87449.00
2024-03-02T07:50:31.265Z,87452.00
2024-03-02T07:51:31.274Z,87447.00
2024-03-02T07:52:31.232Z,87451.00
2024-03-02T07:53:31.219Z,87444.00
2024-03-02T07:54:31.245Z,87448.00
2024-03-02T07:55:31.200Z,87450.00
2024-03-02T07:56:31.172Z,87449.00
2024-03-02T07:57:31.180Z,87447.00
2024-03-02T07:58:31.133Z,87443.00
2024-03-02T07:59:31.103Z,87441.00
2024-03-02T08:00:31.160Z,87446.00
2024-03-02T08:01:31.144Z,87452.00
2024-03-02T08:02:31.066Z,87450.00
2024-03-02T08:03:31.073Z,87444.00
2024-03-02T08:04:31.026Z,87450.00
2024-03-02T08:05:31.004Z,87448.00
2024-03-02T08:06:31.009Z,87448.00
2024-03-02T08:07:30.979Z,87455.00
2024-03-02T08:08:30.952Z,87448.00
2024-03-02T08:09:30.969Z,87452.00
2024-03-02T08:10:30.923Z,87455.00
2024-03-02T08:11:30.918Z,87456.00
2024-03-02T08:12:30.884Z,87455.00
2024-03-02T08:13:30.866Z,87452.00
2024-03-02T08:14:30.839Z,87458.00
2024-03-02T08:15:30.851Z,87450.00
2024-03-02T08:16:30.793Z,87454.00
2024-03-02T08:17:30.803Z,87452.00
2024-03-02T08:18:30.792Z,87456.00
2024-03-02T08:19:30.732Z,87453.00
2024-03-02T08:20:30.725Z,87453.00
2024-03-02T08:21:30.688Z,87452.00
2024-03-02T08:22:30.679Z,87459.00
2024-03-02T08:23:30.636Z,87457.00
2024-03-02T08:24:30.673Z,87458.00
2024-03-02T08:25:30.623Z,87455.00
2024-03-02T08:26:30.602Z,87457.00
2024-03-02T08:27:30.598Z,87456.00
2024-03-02T08:28:30.555Z,87467.00
2024-03-02T08:29:30.538Z,87464.00
2024-03-02T08:30:30.539Z,87466.00
2024-03-02T08:31:30.500Z,87470.00
2024-03-02T08:32:30.492Z,87471.00
2024-03-02T08:33:30.483Z,87469.00
2024-03-02T08:34:30.427Z,87469.00
2024-03-02T08:35:30.421Z,87469.00
2024-03-02T08:36:30.415Z,87473.00
2024-03-02T08:37:30.365Z,87470.00
2024-03-02T08:38:30.349Z,87469.00
2024-03-02T08:39:30.387Z,87474.00
2024-03-02T08:40:30.304Z,87467.00
2024-03-02T08:41:30.289Z,87470.00
2024-03-02T08:42:30.308Z,87469.00
2024-03-02T08:43:30.283Z,87469.00
2024-03-02T08:44:30.292Z,87477.00
2024-03-02T08:45:30.350Z,87472.00
2024-03-02T08:46:30.321Z,87475.00
2024-03-02T08:47:30.308Z,87471.00
2024-03-02T08:48:30.370Z,87474.00
2024-03-02T08:49:30.291Z,87472.00
2024-03-02T08:50:30.344Z,87482.00
2024-03-02T08:51:30.322Z,87471.00
2024-03-02T08:52:30.310Z,87480.00
2024-03-02T08:53:30.312Z,87474.00
2024-03-02T08:54:30.344Z,87479.00
2024-03-02T08:55:30.361Z,87472.00
2024-03-02T08:56:30.328Z,87473.00
2024-03-02T08:57:30.425Z,87475.00
2024-03-02T08:58:30.353Z,87478.00
2024-03-02T08:59:30.381Z,87469.00
2024-03-02T09:00:30.435Z,87470.00
2024-03-02T09:01:30.466Z,87471.00
2024-03-02T09:02:30.397Z,87470.00
2024-03-02T09:03:30.473Z,87472.00
2024-03-02T09:04:33.688Z,87468.00
2024-03-02T09:05:30.483Z,87468.00
2024-03-02T09:06:30.379Z,87464.00
2024-03-02T09:07:30.336Z,87465.00
2024-03-02T09:08:30.297Z,87465.00
2024-03-02T09:09:30.303Z,87465.00
2024-03-02T09:10:30.306Z,87470.00
2024-03-02T09:11:30.257Z,87467.00
2024-03-02T09:12:30.241Z,87465.00
2024-03-02T09:13:30.197Z,87473.00
2024-03-02T09:14:30.183Z,87469.00
2024-03-02T09:15:30.438Z,87473.00
2024-03-02T09:16:30.146Z,87468.00
2024-03-02T09:17:30.113Z,87467.00
2024-03-02T09:18:30.167Z,87473.00
2024-03-02T09:19:30.066Z,87470.00
2024-03-02T09:20:30.059Z,87470.00
2024-03-02T09:21:30.051Z,87473.00
2024-03-02T09:22:29.979Z,87469.00
2024-03-02T09:23:29.949Z,87474.00
2024-03-02T09:24:29.943Z,87475.00
2024-03-02T09:25:29.906Z,87469.00
2024-03-02T09:26:29.892Z,87477.00
2024-03-02T09:27:29.881Z,87469.00
2024-03-02T09:28:29.840Z,87472.00
2024-03-02T09:29:29.864Z,87475.00
2024-03-02T09:30:29.936Z,87469.00
2024-03-02T09:31:29.963Z,87475.00
2024-03-02T09:32:30.054Z,87473.00
2024-03-02T09:33:30.130Z,87470.00
2024-03-02T09:34:30.104Z,87468.00
2024-03-02T09:35:30.111Z,87467.00
2024-03-02T09:36:30.156Z,87470.00
2024-03-02T09:37:30.160Z,87476.00
2024-03-02T09:38:30.193Z,87467.00
2024-03-02T09:39:30.209Z,87471.00
2024-03-02T09:40:30.229Z,87473.00
2024-03-02T09:41:30.258Z,87468.00
2024-03-02T09:42:30.304Z,87468.00
2024-03-02T09:43:30.296Z,87466.00
2024-03-02T09:44:30.324Z,87471.00
2024-03-02T09:45:30.359Z,87466.00
2024-03-02T09:46:30.341Z,87468.00
2024-03-02T09:47:30.381Z,87468.00
2024-03-02T09:48:30.386Z,87467.00
2024-03-02T09:49:30.369Z,87470.00
2024-03-02T09:50:30.368Z,87468.00
2024-03-02T09:51:30.383Z,87466.00
2024-03-02T09:52:30.376Z,87466.00
2024-03-02T09:53:30.364Z,87467.00
2024-03-02T09:54:30.399Z,87470.00
2024-03-02T09:55:30.352Z,87470.00
2024-03-02T09:56:30.365Z,87469.00
2024-03-02T09:57:30.351Z,87472.00
2024-03-02T09:58:30.327Z,87470.00
2024-03-02T09:59:30.298Z,87474.00
2024-03-02T10:00:30.340Z,87471.00
2024-03-02T10:01:30.340Z,87476.00
2024-03-02T10:02:30.226Z,87473.00
2024-03-02T10:03:30.220Z,87476.00
2024-03-02T10:04:30.160Z,87473.00
2024-03-02T10:05:30.264Z,87476.00
2024-03-02T10:06:30.160Z,87470.00
2024-03-02T10:07:30.047Z,87470.00
2024-03-02T10:08:30.007Z,87468.00
2024-03-02T10:09:30.039Z,87466.00
2024-03-02T10:10:29.920Z,87469.00
2024-03-02T10:11:29.941Z,87468.00
2024-03-02T10:12:29.883Z,87469.00
2024-03-02T10:13:29.799Z,87461.00
2024-03-02T10:14:29.763Z,87463.00
2024-03-02T10:15:29.743Z,87462.00
2024-03-02T10:16:29.717Z,87466.00
2024-03-02T10:17:29.671Z,87466.00
2024-03-02T10:18:29.751Z,87467.00
2024-03-02T10:19:29.560Z,87466.00
2024-03-02T10:20:29.523Z,87464.00
2024-03-02T10:21:29.519Z,87466.00
2024-03-02T10:22:29.457Z,87465.00
2024-03-02T10:23:29.408Z,87463.00
2024-03-02T10:24:29.381Z,87463.00
2024-03-02T10:25:37.383Z,87466.00
2024-03-02T10:26:30.287Z,87464.00
2024-03-02T10:27:29.292Z,87463.00
2024-03-02T10:28:29.288Z,87467.00
2024-03-02T10:29:29.185Z,87465.00
2024-03-02T10:30:29.210Z,87462.00
2024-03-02T10:31:29.137Z,87461.00
2024-03-02T10:32:29.155Z,87466.00
2024-03-02T10:33:29.099Z,87468.00
2024-03-02T10:34:29.024Z,87462.00
2024-03-02T10:35:28.986Z,87467.00
2024-03-02T10:36:28.984Z,87467.00
2024-03-02T10:37:28.916Z,87469.00
2024-03-02T10:38:28.892Z,87460.00
2024-03-02T10:39:28.863Z,87467.00
2024-03-02T10:40:28.822Z,87464.00
2024-03-02T10:41:28.781Z,87460.00
2024-03-02T10:42:28.747Z,87460.00
2024-03-02T10:43:28.705Z,87458.00
2024-03-02T10:44:28.680Z,87459.00
2024-03-02T10:45:28.692Z,87460.00
2024-03-02T10:46:28.605Z,87457.00
2024-03-02T10:47:28.574Z,87461.00
2024-03-02T10:48:28.573Z,87457.00
2024-03-02T10:49:28.501Z,87459.00
2024-03-02T10:50:28.469Z,87456.00
2024-03-02T10:51:28.443Z,87456.00
2024-03-02T10:52:28.407Z,87455.00
2024-03-02T10:53:28.365Z,87458.00
2024-03-02T10:54:28.442Z,87449.00
2024-03-02T10:55:28.521Z,87454.00
2024-03-02T10:56:28.317Z,87455.00
2024-03-02T10:57:28.299Z,87450.00
2024-03-02T10:58:28.240Z,87454.00
2024-03-02T10:59:28.131Z,87454.00
2024-03-02T11:00:28.252Z,87447.00
2024-03-02T11:01:28.188Z,87444.00
2024-03-02T11:02:28.015Z,87445.00
2024-03-02T11:03:28.006Z,87451.00
2024-03-02T11:04:27.976Z,87449.00
2024-03-02T11:05:27.919Z,87446.00
2024-03-02T11:06:27.967Z,87448.00
2024-03-02T11:07:27.872Z,87446.00
2024-03-02T11:08:27.828Z,87441.00
2024-03-02T11:09:27.815Z,87440.00
2024-03-02T11:10:27.757Z,87442.00
2024-03-02T11:11:27.856Z,87439.00
2024-03-02T11:12:27.700Z,87439.00
2024-03-02T11:13:27.657Z,87437.00
2024-03-02T11:14:27.619Z,87439.00
2024-03-02T11:15:27.624Z,87437.00
2024-03-02T11:16:27.542Z,87440.00
2024-03-02T11:17:27.524Z,87439.00
2024-03-02T11:18:27.544Z,87437.00
2024-03-02T11:19:27.476Z,87437.00
2024-03-02T11:20:27.470Z,87434.00
2024-03-02T11:21:27.412Z,87427.00
2024-03-02T11:22:27.386Z,87423.00
2024-03-02T11:23:27.286Z,87426.00
2024-03-02T11:24:27.261Z,87423.00
2024-03-02T11:25:27.220Z,87425.00
2024-03-02T11:26:27.179Z,87427.00
2024-03-02T11:27:27.164Z,87427.00
2024-03-02T11:28:27.122Z,87425.00
2024-03-02T11:29:27.154Z,87424.00
2024-03-02T11:30:27.161Z,87420.00
2024-03-02T11:31:27.148Z,87422.00
2024-03-02T11:32:27.171Z,87422.00
2024-03-02T11:33:27.238Z,87418.00
2024-03-02T11:34:27.170Z,87415.00
2024-03-02T11:35:27.265Z,87411.00
2024-03-02T11:36:27.194Z,87411.00
2024-03-02T11:37:27.182Z,87413.00
2024-03-02T11:38:27.236Z,87412.00
2024-03-02T11:39:27.249Z,87411.00
2024-03-02T11:40:27.267Z,87413.00
2024-03-02T11:41:27.318Z,87408.00
2024-03-02T11:42:27.322Z,87412.00
2024-03-02T11:43:27.324Z,87411.00
2024-03-02T11:44:27.336Z,87417.00
2024-03-02T11:45:27.372Z,87412.00
2024-03-02T11:46:27.358Z,87404.00